sensor_id;sensor_type;location;lat;lon;timestamp;P1;durP1;ratioP1;P2;durP2;ratioP2
54191;SDS011;40101;53.002;6.488;2022-08-30T00:00:17;5.07;;;3.00;;
54191;SDS011;40101;53.002;6.488;2022-08-30T00:03:03;5.97;;;2.80;;
54191;SDS011;40101;53.002;6.488;2022-08-30T00:05:31;5.18;;;2.92;;
54191;SDS011;40101;53.002;6.488;2022-08-30T00:07:57;4.50;;;2.75;;
54191;SDS011;40101;53.002;6.488;2022-08-30T00:10:23;5.97;;;2.80;;
54191;SDS011;40101;53.002;6.488;2022-08-30T00:12:50;5.20;;;2.83;;
54191;SDS011;40101;53.002;6.488;2022-08-30T00:15:17;4.10;;;2.70;;
54191;SDS011;40101;53.002;6.488;2022-08-30T00:17:43;3.70;;;3.08;;
54191;SDS011;40101;53.002;6.488;2022-08-30T00:20:11;4.13;;;2.60;;
54191;SDS011;40101;53.002;6.488;2022-08-30T00:22:40;5.50;;;3.03;;
54191;SDS011;40101;53.002;6.488;2022-08-30T00:25:06;5.80;;;2.70;;
54191;SDS011;40101;53.002;6.488;2022-08-30T00:27:33;4.25;;;2.70;;
54191;SDS011;40101;53.002;6.488;2022-08-30T00:29:58;4.00;;;2.33;;
54191;SDS011;40101;53.002;6.488;2022-08-30T00:32:24;3.92;;;2.38;;
54191;SDS011;40101;53.002;6.488;2022-08-30T00:34:51;3.67;;;2.95;;
54191;SDS011;40101;53.002;6.488;2022-08-30T00:37:19;9.02;;;2.95;;
54191;SDS011;40101;53.002;6.488;2022-08-30T00:39:46;6.30;;;3.90;;
54191;SDS011;40101;53.002;6.488;2022-08-30T00:42:12;7.55;;;4.43;;
54191;SDS011;40101;53.002;6.488;2022-08-30T00:44:39;5.72;;;4.20;;
54191;SDS011;40101;53.002;6.488;2022-08-30T00:47:06;6.30;;;3.95;;
54191;SDS011;40101;53.002;6.488;2022-08-30T00:49:32;5.47;;;3.75;;
54191;SDS011;40101;53.002;6.488;2022-08-30T00:52:00;5.10;;;3.17;;
54191;SDS011;40101;53.002;6.488;2022-08-30T00:54:28;5.35;;;3.28;;
54191;SDS011;40101;53.002;6.488;2022-08-30T00:56:55;6.28;;;3.70;;
54191;SDS011;40101;53.002;6.488;2022-08-30T00:59:21;3.78;;;3.35;;
54191;SDS011;40101;53.002;6.488;2022-08-30T01:01:49;6.00;;;3.70;;
54191;SDS011;40101;53.002;6.488;2022-08-30T01:04:15;8.90;;;4.18;;
54191;SDS011;40101;53.002;6.488;2022-08-30T01:06:44;7.32;;;4.20;;
54191;SDS011;40101;53.002;6.488;2022-08-30T01:09:10;4.53;;;3.40;;
54191;SDS011;40101;53.002;6.488;2022-08-30T01:11:36;7.70;;;4.18;;
54191;SDS011;40101;53.002;6.488;2022-08-30T01:14:06;5.05;;;3.80;;
54191;SDS011;40101;53.002;6.488;2022-08-30T01:16:33;4.47;;;3.60;;
54191;SDS011;40101;53.002;6.488;2022-08-30T01:19:00;5.80;;;3.83;;
54191;SDS011;40101;53.002;6.488;2022-08-30T01:21:47;5.75;;;3.65;;
54191;SDS011;40101;53.002;6.488;2022-08-30T01:24:17;6.82;;;4.07;;
54191;SDS011;40101;53.002;6.488;2022-08-30T01:26:43;7.00;;;4.45;;
54191;SDS011;40101;53.002;6.488;2022-08-30T01:29:12;6.68;;;3.83;;
54191;SDS011;40101;53.002;6.488;2022-08-30T01:31:43;6.28;;;3.70;;
54191;SDS011;40101;53.002;6.488;2022-08-30T01:34:08;6.32;;;4.53;;
54191;SDS011;40101;53.002;6.488;2022-08-30T01:36:34;6.35;;;4.20;;
54191;SDS011;40101;53.002;6.488;2022-08-30T01:39:04;5.28;;;3.72;;
54191;SDS011;40101;53.002;6.488;2022-08-30T01:41:32;5.95;;;4.13;;
54191;SDS011;40101;53.002;6.488;2022-08-30T01:43:59;5.78;;;3.55;;
54191;SDS011;40101;53.002;6.488;2022-08-30T01:46:32;6.15;;;3.95;;
54191;SDS011;40101;53.002;6.488;2022-08-30T01:49:00;6.53;;;3.50;;
54191;SDS011;40101;53.002;6.488;2022-08-30T01:51:28;8.30;;;3.55;;
54191;SDS011;40101;53.002;6.488;2022-08-30T01:53:55;6.47;;;4.38;;
54191;SDS011;40101;53.002;6.488;2022-08-30T01:56:22;4.95;;;3.78;;
54191;SDS011;40101;53.002;6.488;2022-08-30T01:58:50;6.18;;;4.20;;
54191;SDS011;40101;53.002;6.488;2022-08-30T02:01:18;7.25;;;3.95;;
54191;SDS011;40101;53.002;6.488;2022-08-30T02:03:47;4.03;;;3.50;;
54191;SDS011;40101;53.002;6.488;2022-08-30T02:06:14;8.32;;;4.05;;
54191;SDS011;40101;53.002;6.488;2022-08-30T02:08:43;4.38;;;3.15;;
54191;SDS011;40101;53.002;6.488;2022-08-30T02:11:09;5.35;;;3.28;;
54191;SDS011;40101;53.002;6.488;2022-08-30T02:13:36;5.65;;;2.85;;
54191;SDS011;40101;53.002;6.488;2022-08-30T02:16:04;4.80;;;3.60;;
54191;SDS011;40101;53.002;6.488;2022-08-30T02:18:35;8.98;;;3.60;;
54191;SDS011;40101;53.002;6.488;2022-08-30T02:21:03;5.60;;;3.88;;
54191;SDS011;40101;53.002;6.488;2022-08-30T02:23:30;5.47;;;4.47;;
54191;SDS011;40101;53.002;6.488;2022-08-30T02:25:56;7.30;;;4.60;;
54191;SDS011;40101;53.002;6.488;2022-08-30T02:28:22;4.82;;;3.28;;
54191;SDS011;40101;53.002;6.488;2022-08-30T02:30:50;7.40;;;4.60;;
54191;SDS011;40101;53.002;6.488;2022-08-30T02:33:16;10.70;;;4.60;;
54191;SDS011;40101;53.002;6.488;2022-08-30T02:35:42;5.70;;;4.28;;
54191;SDS011;40101;53.002;6.488;2022-08-30T02:38:09;5.95;;;4.30;;
54191;SDS011;40101;53.002;6.488;2022-08-30T02:40:35;6.28;;;4.70;;
54191;SDS011;40101;53.002;6.488;2022-08-30T02:43:01;8.80;;;4.50;;
54191;SDS011;40101;53.002;6.488;2022-08-30T02:45:27;6.82;;;4.70;;
54191;SDS011;40101;53.002;6.488;2022-08-30T02:47:53;10.30;;;5.18;;
54191;SDS011;40101;53.002;6.488;2022-08-30T02:50:20;6.35;;;4.28;;
54191;SDS011;40101;53.002;6.488;2022-08-30T02:52:47;6.05;;;4.13;;
54191;SDS011;40101;53.002;6.488;2022-08-30T02:55:13;7.45;;;4.45;;
54191;SDS011;40101;53.002;6.488;2022-08-30T02:57:39;5.68;;;4.35;;
54191;SDS011;40101;53.002;6.488;2022-08-30T03:00:06;6.30;;;4.55;;
54191;SDS011;40101;53.002;6.488;2022-08-30T03:02:33;4.90;;;4.40;;
54191;SDS011;40101;53.002;6.488;2022-08-30T03:05:00;6.88;;;4.93;;
54191;SDS011;40101;53.002;6.488;2022-08-30T03:07:25;5.43;;;4.57;;
54191;SDS011;40101;53.002;6.488;2022-08-30T03:09:51;8.80;;;4.28;;
54191;SDS011;40101;53.002;6.488;2022-08-30T03:12:17;11.32;;;4.82;;
54191;SDS011;40101;53.002;6.488;2022-08-30T03:14:43;10.18;;;4.80;;
54191;SDS011;40101;53.002;6.488;2022-08-30T03:17:10;7.45;;;4.22;;
54191;SDS011;40101;53.002;6.488;2022-08-30T03:19:36;7.63;;;4.53;;
54191;SDS011;40101;53.002;6.488;2022-08-30T03:22:03;7.57;;;4.97;;
54191;SDS011;40101;53.002;6.488;2022-08-30T03:24:29;6.40;;;4.50;;
54191;SDS011;40101;53.002;6.488;2022-08-30T03:26:55;5.60;;;4.30;;
54191;SDS011;40101;53.002;6.488;2022-08-30T03:29:21;9.38;;;5.18;;
54191;SDS011;40101;53.002;6.488;2022-08-30T03:31:47;6.28;;;4.35;;
54191;SDS011;40101;53.002;6.488;2022-08-30T03:34:13;5.25;;;3.42;;
54191;SDS011;40101;53.002;6.488;2022-08-30T03:36:40;6.22;;;3.95;;
54191;SDS011;40101;53.002;6.488;2022-08-30T03:39:06;4.45;;;3.08;;
54191;SDS011;40101;53.002;6.488;2022-08-30T03:41:33;3.25;;;2.90;;
54191;SDS011;40101;53.002;6.488;2022-08-30T03:43:59;5.65;;;3.60;;
54191;SDS011;40101;53.002;6.488;2022-08-30T03:46:26;5.88;;;3.88;;
54191;SDS011;40101;53.002;6.488;2022-08-30T03:48:53;3.63;;;2.85;;
54191;SDS011;40101;53.002;6.488;2022-08-30T03:51:20;4.13;;;3.30;;
54191;SDS011;40101;53.002;6.488;2022-08-30T03:53:47;6.55;;;3.28;;
54191;SDS011;40101;53.002;6.488;2022-08-30T03:56:13;7.07;;;3.67;;
54191;SDS011;40101;53.002;6.488;2022-08-30T03:58:39;5.28;;;3.78;;
54191;SDS011;40101;53.002;6.488;2022-08-30T04:01:06;4.97;;;3.30;;
54191;SDS011;40101;53.002;6.488;2022-08-30T04:03:31;5.40;;;3.75;;
54191;SDS011;40101;53.002;6.488;2022-08-30T04:05:57;4.75;;;3.55;;
54191;SDS011;40101;53.002;6.488;2022-08-30T04:08:25;8.27;;;4.13;;
54191;SDS011;40101;53.002;6.488;2022-08-30T04:10:51;6.47;;;3.25;;
54191;SDS011;40101;53.002;6.488;2022-08-30T04:13:17;4.93;;;3.42;;
54191;SDS011;40101;53.002;6.488;2022-08-30T04:15:44;4.43;;;3.67;;
54191;SDS011;40101;53.002;6.488;2022-08-30T04:18:10;5.15;;;3.63;;
54191;SDS011;40101;53.002;6.488;2022-08-30T04:20:39;4.75;;;3.80;;
54191;SDS011;40101;53.002;6.488;2022-08-30T04:23:05;4.45;;;2.97;;
54191;SDS011;40101;53.002;6.488;2022-08-30T04:25:34;8.27;;;4.38;;
54191;SDS011;40101;53.002;6.488;2022-08-30T04:28:02;5.72;;;3.85;;
54191;SDS011;40101;53.002;6.488;2022-08-30T04:30:29;5.50;;;4.80;;
54191;SDS011;40101;53.002;6.488;2022-08-30T04:32:55;6.93;;;4.88;;
54191;SDS011;40101;53.002;6.488;2022-08-30T04:35:21;5.28;;;4.63;;
54191;SDS011;40101;53.002;6.488;2022-08-30T04:37:48;7.05;;;5.13;;
54191;SDS011;40101;53.002;6.488;2022-08-30T04:40:14;6.47;;;4.40;;
54191;SDS011;40101;53.002;6.488;2022-08-30T04:42:40;7.45;;;4.95;;
54191;SDS011;40101;53.002;6.488;2022-08-30T04:45:09;8.60;;;5.60;;
54191;SDS011;40101;53.002;6.488;2022-08-30T04:47:36;9.13;;;5.13;;
54191;SDS011;40101;53.002;6.488;2022-08-30T04:50:04;5.97;;;4.60;;
54191;SDS011;40101;53.002;6.488;2022-08-30T04:52:31;9.23;;;5.25;;
54191;SDS011;40101;53.002;6.488;2022-08-30T04:54:57;7.10;;;4.63;;
54191;SDS011;40101;53.002;6.488;2022-08-30T04:57:23;5.65;;;4.38;;
54191;SDS011;40101;53.002;6.488;2022-08-30T04:59:50;7.47;;;5.38;;
54191;SDS011;40101;53.002;6.488;2022-08-30T05:02:17;6.85;;;4.60;;
54191;SDS011;40101;53.002;6.488;2022-08-30T05:04:43;7.75;;;5.18;;
54191;SDS011;40101;53.002;6.488;2022-08-30T05:07:28;6.32;;;5.15;;
54191;SDS011;40101;53.002;6.488;2022-08-30T05:09:55;9.50;;;4.60;;
54191;SDS011;40101;53.002;6.488;2022-08-30T05:12:21;7.68;;;4.53;;
54191;SDS011;40101;53.002;6.488;2022-08-30T05:14:47;7.20;;;4.78;;
54191;SDS011;40101;53.002;6.488;2022-08-30T05:17:16;7.72;;;4.57;;
54191;SDS011;40101;53.002;6.488;2022-08-30T05:19:42;7.28;;;4.30;;
54191;SDS011;40101;53.002;6.488;2022-08-30T05:22:08;6.50;;;4.30;;
54191;SDS011;40101;53.002;6.488;2022-08-30T05:24:34;14.25;;;5.55;;
54191;SDS011;40101;53.002;6.488;2022-08-30T05:27:00;6.47;;;4.82;;
54191;SDS011;40101;53.002;6.488;2022-08-30T05:29:27;5.82;;;5.18;;
54191;SDS011;40101;53.002;6.488;2022-08-30T05:31:54;8.85;;;5.57;;
54191;SDS011;40101;53.002;6.488;2022-08-30T05:34:19;6.47;;;4.82;;
54191;SDS011;40101;53.002;6.488;2022-08-30T05:36:45;5.63;;;4.88;;
54191;SDS011;40101;53.002;6.488;2022-08-30T05:39:11;5.10;;;4.60;;
54191;SDS011;40101;53.002;6.488;2022-08-30T05:41:38;8.00;;;4.53;;
54191;SDS011;40101;53.002;6.488;2022-08-30T05:44:05;5.45;;;4.10;;
54191;SDS011;40101;53.002;6.488;2022-08-30T05:46:32;9.40;;;4.50;;
54191;SDS011;40101;53.002;6.488;2022-08-30T05:48:59;7.15;;;4.57;;
54191;SDS011;40101;53.002;6.488;2022-08-30T05:51:28;6.55;;;4.35;;
54191;SDS011;40101;53.002;6.488;2022-08-30T05:53:56;8.85;;;4.45;;
54191;SDS011;40101;53.002;6.488;2022-08-30T05:56:24;7.22;;;3.95;;
54191;SDS011;40101;53.002;6.488;2022-08-30T05:58:54;6.00;;;4.47;;
54191;SDS011;40101;53.002;6.488;2022-08-30T06:01:24;8.32;;;3.83;;
54191;SDS011;40101;53.002;6.488;2022-08-30T06:03:53;6.28;;;4.20;;
54191;SDS011;40101;53.002;6.488;2022-08-30T06:06:22;7.53;;;5.07;;
54191;SDS011;40101;53.002;6.488;2022-08-30T06:08:49;6.38;;;4.15;;
54191;SDS011;40101;53.002;6.488;2022-08-30T06:11:15;6.43;;;3.97;;
54191;SDS011;40101;53.002;6.488;2022-08-30T06:13:44;6.68;;;3.90;;
54191;SDS011;40101;53.002;6.488;2022-08-30T06:16:11;5.88;;;3.13;;
54191;SDS011;40101;53.002;6.488;2022-08-30T06:18:38;6.10;;;3.42;;
54191;SDS011;40101;53.002;6.488;2022-08-30T06:21:05;7.25;;;3.28;;
54191;SDS011;40101;53.002;6.488;2022-08-30T06:23:31;6.88;;;2.97;;
54191;SDS011;40101;53.002;6.488;2022-08-30T06:26:04;8.27;;;2.92;;
54191;SDS011;40101;53.002;6.488;2022-08-30T06:28:31;5.22;;;2.95;;
54191;SDS011;40101;53.002;6.488;2022-08-30T06:30:57;5.60;;;2.88;;
54191;SDS011;40101;53.002;6.488;2022-08-30T06:33:23;6.95;;;3.13;;
54191;SDS011;40101;53.002;6.488;2022-08-30T06:35:49;4.63;;;2.30;;
54191;SDS011;40101;53.002;6.488;2022-08-30T06:38:15;6.25;;;2.72;;
54191;SDS011;40101;53.002;6.488;2022-08-30T06:40:42;7.28;;;2.60;;
54191;SDS011;40101;53.002;6.488;2022-08-30T06:43:07;4.20;;;2.15;;
54191;SDS011;40101;53.002;6.488;2022-08-30T06:45:33;4.05;;;2.10;;
54191;SDS011;40101;53.002;6.488;2022-08-30T06:48:00;5.88;;;2.33;;
54191;SDS011;40101;53.002;6.488;2022-08-30T06:50:26;8.65;;;2.03;;
54191;SDS011;40101;53.002;6.488;2022-08-30T06:52:52;2.88;;;1.88;;
54191;SDS011;40101;53.002;6.488;2022-08-30T06:55:18;5.25;;;2.05;;
54191;SDS011;40101;53.002;6.488;2022-08-30T06:57:44;5.40;;;1.88;;
54191;SDS011;40101;53.002;6.488;2022-08-30T07:00:12;4.93;;;2.95;;
54191;SDS011;40101;53.002;6.488;2022-08-30T07:02:39;5.70;;;1.73;;
54191;SDS011;40101;53.002;6.488;2022-08-30T07:05:05;7.25;;;1.70;;
54191;SDS011;40101;53.002;6.488;2022-08-30T07:07:33;8.73;;;2.17;;
54191;SDS011;40101;53.002;6.488;2022-08-30T07:10:00;6.82;;;1.73;;
54191;SDS011;40101;53.002;6.488;2022-08-30T07:12:31;5.40;;;2.05;;
54191;SDS011;40101;53.002;6.488;2022-08-30T07:14:57;8.20;;;2.03;;
54191;SDS011;40101;53.002;6.488;2022-08-30T07:17:22;9.25;;;2.75;;
54191;SDS011;40101;53.002;6.488;2022-08-30T07:20:07;3.60;;;1.42;;
54191;SDS011;40101;53.002;6.488;2022-08-30T07:22:34;4.28;;;1.50;;
54191;SDS011;40101;53.002;6.488;2022-08-30T07:25:00;2.40;;;1.30;;
54191;SDS011;40101;53.002;6.488;2022-08-30T07:27:26;3.13;;;1.33;;
54191;SDS011;40101;53.002;6.488;2022-08-30T07:29:51;4.10;;;1.50;;
54191;SDS011;40101;53.002;6.488;2022-08-30T07:32:18;3.25;;;1.38;;
54191;SDS011;40101;53.002;6.488;2022-08-30T07:34:43;3.05;;;1.13;;
54191;SDS011;40101;53.002;6.488;2022-08-30T07:37:09;1.65;;;1.10;;
54191;SDS011;40101;53.002;6.488;2022-08-30T07:39:36;5.55;;;1.15;;
54191;SDS011;40101;53.002;6.488;2022-08-30T07:42:01;5.03;;;1.30;;
54191;SDS011;40101;53.002;6.488;2022-08-30T07:44:27;2.85;;;0.90;;
54191;SDS011;40101;53.002;6.488;2022-08-30T07:46:54;1.85;;;1.20;;
54191;SDS011;40101;53.002;6.488;2022-08-30T07:49:20;2.15;;;1.30;;
54191;SDS011;40101;53.002;6.488;2022-08-30T07:51:46;2.65;;;1.08;;
54191;SDS011;40101;53.002;6.488;2022-08-30T07:54:12;2.53;;;1.10;;
54191;SDS011;40101;53.002;6.488;2022-08-30T07:56:38;2.95;;;1.27;;
54191;SDS011;40101;53.002;6.488;2022-08-30T07:59:04;1.90;;;1.08;;
54191;SDS011;40101;53.002;6.488;2022-08-30T08:01:30;1.40;;;0.88;;
54191;SDS011;40101;53.002;6.488;2022-08-30T08:03:57;1.95;;;1.05;;
54191;SDS011;40101;53.002;6.488;2022-08-30T08:06:23;2.20;;;1.20;;
54191;SDS011;40101;53.002;6.488;2022-08-30T08:08:51;1.20;;;0.90;;
54191;SDS011;40101;53.002;6.488;2022-08-30T08:11:19;1.30;;;0.88;;
54191;SDS011;40101;53.002;6.488;2022-08-30T08:13:48;9.40;;;1.27;;
54191;SDS011;40101;53.002;6.488;2022-08-30T08:16:14;1.33;;;0.93;;
54191;SDS011;40101;53.002;6.488;2022-08-30T08:18:40;2.63;;;1.20;;
54191;SDS011;40101;53.002;6.488;2022-08-30T08:21:06;2.42;;;0.98;;
54191;SDS011;40101;53.002;6.488;2022-08-30T08:23:32;3.17;;;1.02;;
54191;SDS011;40101;53.002;6.488;2022-08-30T08:25:58;3.30;;;1.27;;
54191;SDS011;40101;53.002;6.488;2022-08-30T08:28:24;1.98;;;0.75;;
54191;SDS011;40101;53.002;6.488;2022-08-30T08:30:50;2.45;;;0.88;;
54191;SDS011;40101;53.002;6.488;2022-08-30T08:33:16;1.48;;;0.77;;
54191;SDS011;40101;53.002;6.488;2022-08-30T08:35:43;0.98;;;0.70;;
54191;SDS011;40101;53.002;6.488;2022-08-30T08:38:10;1.23;;;0.68;;
54191;SDS011;40101;53.002;6.488;2022-08-30T08:40:40;1.40;;;0.82;;
54191;SDS011;40101;53.002;6.488;2022-08-30T08:43:28;1.95;;;1.13;;
54191;SDS011;40101;53.002;6.488;2022-08-30T08:51:14;3.38;;;0.80;;
54191;SDS011;40101;53.002;6.488;2022-08-30T08:54:06;6.75;;;0.98;;
54191;SDS011;40101;53.002;6.488;2022-08-30T08:56:39;2.47;;;0.80;;
54191;SDS011;40101;53.002;6.488;2022-08-30T08:59:06;1.80;;;0.65;;
54191;SDS011;40101;53.002;6.488;2022-08-30T09:01:35;2.25;;;0.70;;
54191;SDS011;40101;53.002;6.488;2022-08-30T09:06:57;2.45;;;0.95;;
54191;SDS011;40101;53.002;6.488;2022-08-30T09:09:31;4.18;;;0.85;;
54191;SDS011;40101;53.002;6.488;2022-08-30T09:11:58;1.73;;;0.80;;
54191;SDS011;40101;53.002;6.488;2022-08-30T09:14:25;2.05;;;1.05;;
54191;SDS011;40101;53.002;6.488;2022-08-30T09:16:59;4.07;;;0.57;;
54191;SDS011;40101;53.002;6.488;2022-08-30T09:22:09;3.58;;;0.90;;
54191;SDS011;40101;53.002;6.488;2022-08-30T09:24:37;2.08;;;0.57;;
54191;SDS011;40101;53.002;6.488;2022-08-30T09:27:18;1.52;;;0.88;;
54191;SDS011;40101;53.002;6.488;2022-08-30T09:29:58;1.17;;;0.65;;
54191;SDS011;40101;53.002;6.488;2022-08-30T09:32:43;1.83;;;0.70;;
54191;SDS011;40101;53.002;6.488;2022-08-30T09:35:19;2.28;;;0.75;;
54191;SDS011;40101;53.002;6.488;2022-08-30T09:40:21;2.28;;;1.00;;
54191;SDS011;40101;53.002;6.488;2022-08-30T09:42:59;4.47;;;0.60;;
54191;SDS011;40101;53.002;6.488;2022-08-30T09:45:34;1.65;;;0.85;;
54191;SDS011;40101;53.002;6.488;2022-08-30T09:50:48;1.50;;;0.50;;
54191;SDS011;40101;53.002;6.488;2022-08-30T09:59:31;1.63;;;0.60;;
54191;SDS011;40101;53.002;6.488;2022-08-30T10:02:46;0.73;;;0.50;;
54191;SDS011;40101;53.002;6.488;2022-08-30T10:05:21;3.10;;;0.80;;
54191;SDS011;40101;53.002;6.488;2022-08-30T10:10:55;1.35;;;0.60;;
54191;SDS011;40101;53.002;6.488;2022-08-30T10:18:50;1.98;;;0.90;;
54191;SDS011;40101;53.002;6.488;2022-08-30T10:21:36;1.17;;;0.70;;
54191;SDS011;40101;53.002;6.488;2022-08-30T10:24:18;1.20;;;0.70;;
54191;SDS011;40101;53.002;6.488;2022-08-30T10:26:52;1.50;;;0.77;;
54191;SDS011;40101;53.002;6.488;2022-08-30T10:32:00;0.95;;;0.70;;
54191;SDS011;40101;53.002;6.488;2022-08-30T10:34:48;2.45;;;0.38;;
54191;SDS011;40101;53.002;6.488;2022-08-30T10:37:20;1.23;;;0.75;;
54191;SDS011;40101;53.002;6.488;2022-08-30T10:39:51;2.33;;;0.98;;
54191;SDS011;40101;53.002;6.488;2022-08-30T10:42:20;1.25;;;0.57;;
54191;SDS011;40101;53.002;6.488;2022-08-30T10:45:11;1.75;;;0.73;;
54191;SDS011;40101;53.002;6.488;2022-08-30T10:50:39;0.57;;;0.47;;
54191;SDS011;40101;53.002;6.488;2022-08-30T10:53:12;5.25;;;1.15;;
54191;SDS011;40101;53.002;6.488;2022-08-30T10:55:44;3.50;;;0.82;;
54191;SDS011;40101;53.002;6.488;2022-08-30T10:58:15;1.85;;;0.60;;
54191;SDS011;40101;53.002;6.488;2022-08-30T11:00:59;2.25;;;0.60;;
54191;SDS011;40101;53.002;6.488;2022-08-30T11:03:45;2.20;;;0.70;;
54191;SDS011;40101;53.002;6.488;2022-08-30T11:14:43;1.13;;;0.52;;
54191;SDS011;40101;53.002;6.488;2022-08-30T11:20:03;2.65;;;0.82;;
54191;SDS011;40101;53.002;6.488;2022-08-30T11:22:35;0.93;;;0.35;;
54191;SDS011;40101;53.002;6.488;2022-08-30T11:25:12;1.20;;;0.65;;
54191;SDS011;40101;53.002;6.488;2022-08-30T11:27:41;2.03;;;0.90;;
54191;SDS011;40101;53.002;6.488;2022-08-30T11:38:00;1.67;;;0.50;;
54191;SDS011;40101;53.002;6.488;2022-08-30T11:41:12;1.75;;;0.60;;
54191;SDS011;40101;53.002;6.488;2022-08-30T11:43:54;1.10;;;0.57;;
54191;SDS011;40101;53.002;6.488;2022-08-30T11:46:36;3.25;;;0.82;;
54191;SDS011;40101;53.002;6.488;2022-08-30T11:57:29;1.48;;;0.80;;
54191;SDS011;40101;53.002;6.488;2022-08-30T12:08:38;4.30;;;0.63;;
54191;SDS011;40101;53.002;6.488;2022-08-30T12:18:46;2.38;;;0.70;;
54191;SDS011;40101;53.002;6.488;2022-08-30T12:26:17;1.60;;;0.40;;
54191;SDS011;40101;53.002;6.488;2022-08-30T12:32:00;0.88;;;0.50;;
54191;SDS011;40101;53.002;6.488;2022-08-30T12:37:22;3.20;;;0.73;;
54191;SDS011;40101;53.002;6.488;2022-08-30T12:42:39;1.33;;;0.70;;
54191;SDS011;40101;53.002;6.488;2022-08-30T12:45:14;0.90;;;0.70;;
54191;SDS011;40101;53.002;6.488;2022-08-30T12:47:48;4.43;;;0.80;;
54191;SDS011;40101;53.002;6.488;2022-08-30T12:50:19;1.85;;;0.45;;
54191;SDS011;40101;53.002;6.488;2022-08-30T12:53:23;1.52;;;0.70;;
54191;SDS011;40101;53.002;6.488;2022-08-30T12:56:04;2.70;;;0.50;;
54191;SDS011;40101;53.002;6.488;2022-08-30T12:58:43;3.10;;;0.80;;
54191;SDS011;40101;53.002;6.488;2022-08-30T13:03:52;1.52;;;0.52;;
54191;SDS011;40101;53.002;6.488;2022-08-30T13:09:26;1.15;;;0.75;;
54191;SDS011;40101;53.002;6.488;2022-08-30T13:12:01;0.95;;;0.52;;
54191;SDS011;40101;53.002;6.488;2022-08-30T13:14:39;1.17;;;0.70;;
54191;SDS011;40101;53.002;6.488;2022-08-30T13:22:31;1.20;;;0.65;;
54191;SDS011;40101;53.002;6.488;2022-08-30T13:25:06;1.35;;;0.45;;
54191;SDS011;40101;53.002;6.488;2022-08-30T13:27:34;1.50;;;0.70;;
54191;SDS011;40101;53.002;6.488;2022-08-30T13:30:09;0.68;;;0.50;;
54191;SDS011;40101;53.002;6.488;2022-08-30T13:32:37;2.85;;;0.45;;
54191;SDS011;40101;53.002;6.488;2022-08-30T13:35:04;3.17;;;0.68;;
54191;SDS011;40101;53.002;6.488;2022-08-30T13:37:30;2.55;;;0.80;;
54191;SDS011;40101;53.002;6.488;2022-08-30T13:39:57;1.95;;;0.85;;
54191;SDS011;40101;53.002;6.488;2022-08-30T13:42:23;2.97;;;0.63;;
54191;SDS011;40101;53.002;6.488;2022-08-30T13:44:49;1.70;;;0.63;;
54191;SDS011;40101;53.002;6.488;2022-08-30T13:47:15;1.08;;;0.50;;
54191;SDS011;40101;53.002;6.488;2022-08-30T13:49:42;2.10;;;0.57;;
54191;SDS011;40101;53.002;6.488;2022-08-30T13:52:10;2.13;;;0.60;;
54191;SDS011;40101;53.002;6.488;2022-08-30T13:54:40;1.40;;;0.60;;
54191;SDS011;40101;53.002;6.488;2022-08-30T13:57:06;2.22;;;0.70;;
54191;SDS011;40101;53.002;6.488;2022-08-30T13:59:32;3.97;;;0.77;;
54191;SDS011;40101;53.002;6.488;2022-08-30T14:01:58;0.60;;;0.47;;
54191;SDS011;40101;53.002;6.488;2022-08-30T14:04:25;0.68;;;0.40;;
54191;SDS011;40101;53.002;6.488;2022-08-30T14:06:52;1.10;;;0.50;;
54191;SDS011;40101;53.002;6.488;2022-08-30T14:09:18;2.78;;;0.50;;
54191;SDS011;40101;53.002;6.488;2022-08-30T14:11:44;0.47;;;0.30;;
54191;SDS011;40101;53.002;6.488;2022-08-30T14:14:10;2.25;;;0.85;;
54191;SDS011;40101;53.002;6.488;2022-08-30T14:16:37;1.83;;;0.60;;
54191;SDS011;40101;53.002;6.488;2022-08-30T14:19:06;1.55;;;0.60;;
54191;SDS011;40101;53.002;6.488;2022-08-30T14:21:32;2.30;;;0.65;;
54191;SDS011;40101;53.002;6.488;2022-08-30T14:23:59;4.35;;;0.90;;
54191;SDS011;40101;53.002;6.488;2022-08-30T14:26:29;0.57;;;0.45;;
54191;SDS011;40101;53.002;6.488;2022-08-30T14:29:17;0.80;;;0.40;;
54191;SDS011;40101;53.002;6.488;2022-08-30T14:31:45;0.95;;;0.52;;
54191;SDS011;40101;53.002;6.488;2022-08-30T14:34:13;1.85;;;0.70;;
54191;SDS011;40101;53.002;6.488;2022-08-30T14:36:40;1.33;;;0.47;;
54191;SDS011;40101;53.002;6.488;2022-08-30T14:39:08;3.80;;;0.65;;
54191;SDS011;40101;53.002;6.488;2022-08-30T14:41:39;1.83;;;0.70;;
54191;SDS011;40101;53.002;6.488;2022-08-30T14:44:07;2.25;;;0.75;;
54191;SDS011;40101;53.002;6.488;2022-08-30T14:46:32;1.30;;;0.43;;
54191;SDS011;40101;53.002;6.488;2022-08-30T14:48:58;1.38;;;0.50;;
54191;SDS011;40101;53.002;6.488;2022-08-30T14:51:24;1.15;;;0.60;;
54191;SDS011;40101;53.002;6.488;2022-08-30T14:53:50;1.23;;;0.70;;
54191;SDS011;40101;53.002;6.488;2022-08-30T14:56:18;3.30;;;1.20;;
54191;SDS011;40101;53.002;6.488;2022-08-30T14:58:49;2.35;;;0.45;;
54191;SDS011;40101;53.002;6.488;2022-08-30T15:01:18;1.75;;;0.40;;
54191;SDS011;40101;53.002;6.488;2022-08-30T15:03:46;3.17;;;0.75;;
54191;SDS011;40101;53.002;6.488;2022-08-30T15:06:12;1.55;;;1.00;;
54191;SDS011;40101;53.002;6.488;2022-08-30T15:08:38;1.27;;;0.70;;
54191;SDS011;40101;53.002;6.488;2022-08-30T15:11:08;1.25;;;0.50;;
54191;SDS011;40101;53.002;6.488;2022-08-30T15:13:36;1.13;;;0.40;;
54191;SDS011;40101;53.002;6.488;2022-08-30T15:16:02;1.40;;;0.50;;
54191;SDS011;40101;53.002;6.488;2022-08-30T15:18:44;1.98;;;1.02;;
54191;SDS011;40101;53.002;6.488;2022-08-30T15:21:10;0.90;;;0.50;;
54191;SDS011;40101;53.002;6.488;2022-08-30T15:23:37;2.22;;;0.47;;
54191;SDS011;40101;53.002;6.488;2022-08-30T15:26:04;3.05;;;0.85;;
54191;SDS011;40101;53.002;6.488;2022-08-30T15:28:30;2.00;;;0.63;;
54191;SDS011;40101;53.002;6.488;2022-08-30T15:30:56;2.03;;;0.80;;
54191;SDS011;40101;53.002;6.488;2022-08-30T15:33:22;1.05;;;0.55;;
54191;SDS011;40101;53.002;6.488;2022-08-30T15:35:48;2.90;;;0.82;;
54191;SDS011;40101;53.002;6.488;2022-08-30T15:38:17;5.13;;;0.60;;
54191;SDS011;40101;53.002;6.488;2022-08-30T15:40:44;0.75;;;0.60;;
54191;SDS011;40101;53.002;6.488;2022-08-30T15:43:13;1.05;;;0.57;;
54191;SDS011;40101;53.002;6.488;2022-08-30T15:45:39;1.08;;;0.60;;
54191;SDS011;40101;53.002;6.488;2022-08-30T15:48:05;0.88;;;0.50;;
54191;SDS011;40101;53.002;6.488;2022-08-30T15:50:31;2.90;;;0.75;;
54191;SDS011;40101;53.002;6.488;2022-08-30T15:52:56;3.92;;;0.77;;
54191;SDS011;40101;53.002;6.488;2022-08-30T15:55:22;1.70;;;0.70;;
54191;SDS011;40101;53.002;6.488;2022-08-30T15:57:49;6.30;;;0.68;;
54191;SDS011;40101;53.002;6.488;2022-08-30T16:00:16;0.65;;;0.40;;
54191;SDS011;40101;53.002;6.488;2022-08-30T16:02:42;1.40;;;0.70;;
54191;SDS011;40101;53.002;6.488;2022-08-30T16:05:08;1.08;;;0.85;;
54191;SDS011;40101;53.002;6.488;2022-08-30T16:07:34;1.40;;;0.52;;
54191;SDS011;40101;53.002;6.488;2022-08-30T16:10:00;0.77;;;0.38;;
54191;SDS011;40101;53.002;6.488;2022-08-30T16:12:26;1.73;;;0.90;;
54191;SDS011;40101;53.002;6.488;2022-08-30T16:14:51;1.50;;;0.65;;
54191;SDS011;40101;53.002;6.488;2022-08-30T16:17:18;3.22;;;0.65;;
54191;SDS011;40101;53.002;6.488;2022-08-30T16:19:44;2.45;;;0.70;;
54191;SDS011;40101;53.002;6.488;2022-08-30T16:22:10;1.20;;;0.70;;
54191;SDS011;40101;53.002;6.488;2022-08-30T16:24:36;1.75;;;0.70;;
54191;SDS011;40101;53.002;6.488;2022-08-30T16:27:02;1.27;;;0.70;;
54191;SDS011;40101;53.002;6.488;2022-08-30T16:29:28;2.08;;;0.40;;
54191;SDS011;40101;53.002;6.488;2022-08-30T16:31:54;2.88;;;1.05;;
54191;SDS011;40101;53.002;6.488;2022-08-30T16:34:20;1.35;;;0.52;;
54191;SDS011;40101;53.002;6.488;2022-08-30T16:36:47;0.70;;;0.60;;
54191;SDS011;40101;53.002;6.488;2022-08-30T16:39:12;1.30;;;0.60;;
54191;SDS011;40101;53.002;6.488;2022-08-30T16:41:38;1.58;;;0.70;;